createdAt,value
2022-11-05T00:02:20.210Z,11.40
2022-11-05T00:07:36.092Z,11.30
2022-11-05T00:12:37.879Z,11.20
2022-11-05T00:17:40.101Z,11.60
2022-11-05T00:22:41.765Z,11.20
2022-11-05T00:27:50.746Z,10.90
2022-11-05T00:32:53.411Z,11.00
2022-11-05T00:37:55.078Z,11.00
2022-11-05T00:42:56.761Z,11.00
2022-11-05T00:47:58.501Z,11.40
2022-11-05T00:53:00.899Z,11.00
2022-11-05T00:58:04.560Z,11.10
2022-11-05T01:03:09.795Z,11.00
2022-11-05T01:08:12.690Z,10.90
2022-11-05T01:13:18.664Z,10.60
2022-11-05T01:18:22.828Z,10.30
2022-11-05T01:23:24.575Z,10.40
2022-11-05T01:28:26.272Z,10.40
2022-11-05T01:33:28.006Z,10.60
2022-11-05T01:38:29.669Z,10.60
2022-11-05T01:43:45.422Z,10.40
2022-11-05T01:48:50.850Z,10.80
2022-11-05T01:54:16.543Z,10.30
2022-11-05T01:59:24.099Z,10.30
2022-11-05T02:04:38.566Z,10.30
2022-11-05T02:10:08.803Z,10.30
2022-11-05T02:15:16.574Z,10.20
2022-11-05T02:20:35.772Z,11.00
2022-11-05T02:25:49.254Z,10.30
2022-11-05T02:31:21.972Z,10.00
2022-11-05T02:37:18.119Z,10.00
2022-11-05T02:42:28.421Z,10.10
2022-11-05T02:47:33.244Z,9.70
2022-11-05T02:52:53.664Z,10.30
2022-11-05T02:57:55.366Z,9.90
2022-11-05T03:02:57.221Z,10.00
2022-11-05T03:08:11.654Z,9.70
2022-11-05T03:13:22.331Z,9.90
2022-11-05T03:18:35.757Z,9.70
2022-11-05T03:24:00.439Z,9.70
2022-11-05T03:29:08.486Z,9.30
2022-11-05T03:34:12.920Z,9.90
2022-11-05T03:39:20.315Z,9.80
2022-11-05T03:44:29.834Z,9.70
2022-11-05T03:49:40.569Z,9.40
2022-11-05T03:54:42.351Z,9.10
2022-11-05T03:59:45.463Z,9.40
2022-11-05T04:04:47.515Z,10.10
2022-11-05T04:09:49.426Z,9.50
2022-11-05T04:14:51.082Z,9.30
2022-11-05T04:19:52.798Z,9.40
2022-11-05T04:24:54.488Z,9.10
2022-11-05T04:29:56.175Z,9.10
2022-11-05T04:34:57.941Z,9.30
2022-11-05T04:39:59.629Z,8.90
2022-11-05T04:45:01.298Z,9.60
2022-11-05T04:50:03.153Z,9.00
2022-11-05T04:55:05.613Z,9.40
2022-11-05T05:00:08.463Z,9.10
2022-11-05T05:05:10.167Z,9.90
2022-11-05T05:10:12.553Z,9.10
2022-11-05T05:15:14.248Z,9.20
2022-11-05T05:20:15.943Z,9.10
2022-11-05T05:25:17.661Z,9.60
2022-11-05T05:30:19.414Z,8.80
2022-11-05T05:35:21.111Z,9.20
2022-11-05T05:40:23.742Z,9.40
2022-11-05T05:45:25.438Z,9.70
2022-11-05T05:50:27.102Z,9.70
2022-11-05T05:55:28.834Z,9.50
2022-11-05T06:00:30.496Z,9.80
2022-11-05T06:05:32.305Z,9.30
2022-11-05T06:10:34.163Z,9.40
2022-11-05T06:15:36.265Z,9.80
2022-11-05T06:20:38.030Z,9.20
2022-11-05T06:25:41.333Z,9.60
2022-11-05T06:30:43.313Z,9.80
2022-11-05T06:35:45.010Z,10.10
2022-11-05T06:40:46.924Z,10.00
2022-11-05T06:45:48.623Z,9.90
2022-11-05T06:50:50.562Z,10.20
2022-11-05T06:55:53.030Z,10.00
2022-11-05T07:00:55.371Z,10.30
2022-11-05T07:05:58.906Z,10.40
2022-11-05T07:11:01.503Z,10.50
2022-11-05T07:16:03.447Z,10.70
2022-11-05T07:21:05.755Z,11.10
2022-11-05T07:26:08.047Z,11.30
2022-11-05T07:31:09.877Z,11.50
2022-11-05T07:36:11.828Z,11.40
2022-11-05T07:41:13.623Z,11.70
2022-11-05T07:46:16.164Z,11.70
2022-11-05T07:51:17.958Z,12.10
2022-11-05T07:56:19.738Z,12.00
2022-11-05T08:01:21.718Z,12.10
2022-11-05T08:06:23.567Z,12.30
2022-11-05T08:11:25.234Z,12.60
2022-11-05T08:16:26.901Z,12.60
2022-11-05T08:21:28.556Z,12.70
2022-11-05T08:26:30.243Z,12.80
2022-11-05T08:31:31.999Z,12.90
2022-11-05T08:36:35.446Z,12.90
2022-11-05T08:41:37.174Z,13.20
2022-11-05T08:46:41.537Z,13.20
2022-11-05T08:51:44.639Z,13.40
2022-11-05T08:56:46.486Z,13.40
2022-11-05T09:01:48.297Z,13.60
2022-11-05T09:06:50.043Z,13.80
2022-11-05T09:12:11.829Z,13.80
2022-11-05T09:17:20.337Z,14.10
2022-11-05T09:22:22.029Z,14.30
2022-11-05T09:27:24.395Z,14.40
2022-11-05T09:32:26.073Z,14.30
2022-11-05T09:37:28.608Z,14.50
2022-11-05T09:42:37.474Z,14.80
2022-11-05T09:47:52.237Z,15.00
2022-11-05T09:52:53.930Z,15.00
2022-11-05T09:57:59.903Z,15.20
2022-11-05T10:03:10.749Z,15.40
2022-11-05T10:08:23.570Z,15.50
2022-11-05T10:13:55.583Z,15.70
2022-11-05T10:19:14.938Z,15.80
2022-11-05T10:24:20.042Z,15.90
2022-11-05T10:29:33.835Z,16.40
2022-11-05T10:34:38.596Z,16.50
2022-11-05T10:39:40.324Z,16.70
2022-11-05T10:45:12.803Z,17.10
2022-11-05T10:50:21.556Z,17.40
2022-11-05T10:55:28.177Z,17.80
2022-11-05T11:00:30.114Z,17.60
2022-11-05T11:05:35.895Z,17.60
2022-11-05T11:11:02.050Z,18.00
2022-11-05T11:16:24.038Z,17.80
2022-11-05T11:21:25.922Z,17.90
2022-11-05T11:26:33.873Z,18.40
2022-11-05T11:31:39.423Z,18.40
2022-11-05T11:36:47.978Z,18.50
2022-11-05T11:41:53.628Z,19.00
2022-11-05T11:47:02.950Z,18.40
2022-11-05T11:52:14.180Z,18.60
2022-11-05T11:57:29.506Z,19.00
2022-11-05T12:03:16.638Z,18.90
2022-11-05T12:08:45.273Z,19.10
2022-11-05T12:13:55.757Z,18.80
2022-11-05T12:19:12.185Z,19.30
2022-11-05T12:24:51.261Z,19.20
2022-11-05T12:30:05.822Z,19.50
2022-11-05T12:35:32.522Z,19.60
2022-11-05T12:40:39.942Z,19.60
2022-11-05T12:45:56.946Z,19.70
2022-11-05T12:51:39.057Z,19.90
2022-11-05T12:56:51.579Z,19.50
2022-11-05T13:02:20.993Z,19.40
2022-11-05T13:07:34.795Z,19.80
2022-11-05T13:12:41.070Z,19.70
2022-11-05T13:18:00.191Z,19.20
2022-11-05T13:23:40.051Z,19.90
2022-11-05T13:28:44.783Z,19.60
2022-11-05T13:33:50.479Z,19.80
2022-11-05T13:39:01.741Z,20.10
2022-11-05T13:44:06.450Z,19.60
2022-11-05T13:49:17.856Z,19.20
2022-11-05T13:54:28.523Z,19.00
2022-11-05T13:59:42.211Z,18.70
2022-11-05T14:04:54.420Z,18.80
2022-11-05T14:10:18.861Z,18.60
2022-11-05T14:15:24.288Z,18.40
2022-11-05T14:20:32.214Z,18.50
2022-11-05T14:25:36.879Z,18.20
2022-11-05T14:30:46.696Z,18.30
2022-11-05T14:35:48.374Z,18.40
2022-11-05T14:40:58.681Z,18.20
2022-11-05T14:46:03.690Z,18.20
2022-11-05T14:51:23.150Z,18.30
2022-11-05T14:56:25.000Z,18.20
2022-11-05T15:02:02.181Z,17.90
2022-11-05T15:07:03.876Z,17.40
2022-11-05T15:12:13.220Z,17.10
2022-11-05T15:17:44.669Z,17.00
2022-11-05T15:22:58.204Z,16.80
2022-11-05T15:28:03.748Z,16.80
2022-11-05T15:33:17.589Z,16.80
2022-11-05T15:38:25.370Z,16.70
2022-11-05T15:43:27.074Z,16.30
2022-11-05T15:48:29.275Z,16.10
2022-11-05T15:54:28.625Z,15.90
2022-11-05T15:59:23.060Z,15.80
2022-11-05T16:04:33.275Z,15.50
2022-11-05T16:09:37.937Z,15.40
2022-11-05T16:14:39.998Z,15.30
2022-11-05T16:19:42.454Z,14.90
2022-11-05T16:24:45.605Z,14.80
2022-11-05T16:29:52.859Z,14.90
2022-11-05T16:35:00.773Z,14.60
2022-11-05T16:40:02.527Z,14.30
2022-11-05T16:45:05.244Z,14.30
2022-11-05T16:50:16.679Z,14.20
2022-11-05T16:55:19.344Z,14.20
2022-11-05T17:00:22.015Z,14.10
2022-11-05T17:05:29.411Z,13.90
2022-11-05T17:10:31.171Z,14.10
2022-11-05T17:15:34.199Z,14.10
2022-11-05T17:20:41.215Z,13.90
2022-11-05T17:25:45.693Z,13.90
2022-11-05T17:30:51.995Z,13.50
2022-11-05T17:35:54.867Z,13.40
2022-11-05T17:40:56.565Z,13.60
2022-11-05T17:46:04.144Z,13.60
2022-11-05T17:51:10.281Z,13.50
2022-11-05T17:56:13.846Z,13.40
2022-11-05T18:01:34.105Z,13.40
2022-11-05T18:06:39.917Z,13.20
2022-11-05T18:11:42.962Z,13.50
2022-11-05T18:16:44.705Z,13.40
2022-11-05T18:21:46.374Z,13.20
2022-11-05T18:26:49.428Z,12.90
2022-11-05T18:31:51.133Z,13.20
2022-11-05T18:36:56.397Z,13.00
2022-11-05T18:41:58.483Z,13.30
2022-11-05T18:47:00.850Z,13.00
2022-11-05T18:52:03.436Z,13.10
2022-11-05T18:57:05.372Z,13.10
2022-11-05T19:02:08.609Z,12.90
2022-11-05T19:07:11.009Z,13.10
2022-11-05T19:12:12.679Z,13.00
2022-11-05T19:17:14.367Z,12.80
2022-11-05T19:22:16.151Z,12.80
2022-11-05T19:27:17.922Z,12.80
2022-11-05T19:32:19.908Z,12.70
2022-11-05T19:37:22.230Z,12.70
2022-11-05T19:42:24.058Z,12.80
2022-11-05T19:47:25.773Z,13.00
2022-11-05T19:52:27.576Z,12.60
2022-11-05T19:57:29.269Z,12.60
2022-11-05T20:02:31.191Z,12.50
2022-11-05T20:07:32.949Z,12.30
2022-11-05T20:12:35.406Z,12.20
2022-11-05T20:17:37.176Z,12.30
2022-11-05T20:22:38.881Z,11.90
2022-11-05T20:27:40.765Z,12.40
2022-11-05T20:32:42.530Z,12.60
2022-11-05T20:37:45.053Z,12.60
2022-11-05T20:42:49.137Z,12.00
2022-11-05T20:47:50.883Z,11.80
2022-11-05T20:52:52.598Z,11.80
2022-11-05T20:57:54.297Z,11.80
2022-11-05T21:02:56.122Z,11.70
2022-11-05T21:07:58.096Z,11.70
2022-11-05T21:12:59.786Z,11.70
2022-11-05T21:18:01.561Z,11.80
2022-11-05T21:23:03.271Z,11.70
2022-11-05T21:28:05.623Z,11.80
2022-11-05T21:33:08.154Z,11.70
2022-11-05T21:38:10.903Z,11.60
2022-11-05T21:43:13.455Z,11.70
2022-11-05T21:48:15.575Z,11.40
2022-11-05T21:53:18.041Z,11.00
2022-11-05T21:58:19.785Z,10.90
2022-11-05T22:03:21.425Z,10.90
2022-11-05T22:08:23.234Z,11.10
2022-11-05T22:13:24.985Z,10.90
2022-11-05T22:18:26.744Z,11.10
2022-11-05T22:23:28.420Z,11.20
2022-11-05T22:28:30.174Z,11.10
2022-11-05T22:33:31.867Z,10.50
2022-11-05T22:38:33.594Z,11.00
2022-11-05T22:43:35.549Z,10.80
2022-11-05T22:48:38.786Z,10.90
2022-11-05T22:53:41.066Z,10.90
2022-11-05T22:58:43.117Z,11.30
2022-11-05T23:03:46.731Z,11.20
2022-11-05T23:08:48.450Z,11.40
2022-11-05T23:13:50.121Z,10.70
2022-11-05T23:18:51.809Z,10.60
2022-11-05T23:23:53.489Z,10.70
2022-11-05T23:28:55.186Z,10.80
2022-11-05T23:33:56.911Z,11.40
2022-11-05T23:38:58.575Z,10.70
2022-11-05T23:44:00.275Z,10.40
2022-11-05T23:49:02.064Z,10.40
2022-11-05T23:54:03.837Z,10.50
2022-11-05T23:59:05.907Z,10.40
